Time;durP1;ratioP1;P1;durP2;ratioP2;P2;SDS_P1;SDS_P2;PMS_P1;PMS_P2;Temp;Humidity;BMP_temperature;BMP_pressure;BME280_temperature;BME280_humidity;BME280_pressure;Samples;Min_cycle;Max_cycle;Signal;HPM_P1;HPM_P2
2023/03/18 00:01:23;;;;;;;;;;;11.10;99.90;;;;;;5083696;28;20378;-76
2023/03/18 00:03:49;;;;;;;;;;;11.10;99.90;;;;;;5072272;28;19939;-76
2023/03/18 00:06:17;;;;;;;;;;;11.00;99.90;;;;;;5094791;28;19923;-76
2023/03/18 00:08:44;;;;;;;;;;;11.10;99.90;;;;;;5107600;28;19924;-76
2023/03/18 00:11:11;;;;;;;;;;;11.10;99.90;;;;;;5073148;28;19932;-75
2023/03/18 00:13:38;;;;;;;;;;;11.10;99.90;;;;;;5093040;28;19924;-77
2023/03/18 00:16:05;;;;;;;;;;;11.10;99.90;;;;;;5093692;28;19924;-75
2023/03/18 00:18:31;;;;;;;;;;;11.10;99.90;;;;;;5093526;28;19924;-75
2023/03/18 00:20:57;;;;;;;;;;;11.20;99.90;;;;;;5093752;28;19930;-75
2023/03/18 00:23:23;;;;;;;;;;;11.20;99.90;;;;;;5094089;28;19924;-76
2023/03/18 00:25:50;;;;;;;;;;;11.10;99.90;;;;;;5092869;28;19973;-76
2023/03/18 00:28:16;;;;;;;;;;;11.10;99.90;;;;;;5093226;28;19924;-75
2023/03/18 00:30:41;;;;;;;;;;;11.10;99.90;;;;;;5094018;28;19947;-76
2023/03/18 00:33:08;;;;;;;;;;;11.10;99.90;;;;;;5093303;28;19924;-76
2023/03/18 00:35:35;;;;;;;;;;;11.10;99.90;;;;;;5081371;28;19931;-76
2023/03/18 00:38:02;;;;;;;;;;;11.10;99.90;;;;;;5094147;28;20289;-76
2023/03/18 00:40:41;;;;;;;;;;;11.10;99.90;;;;;;5093849;28;19931;-76
2023/03/18 00:43:11;;;;;;;;;;;11.10;99.90;;;;;;5092466;28;19928;-76
2023/03/18 00:45:37;;;;;;;;;;;11.10;99.90;;;;;;5075144;28;19924;-76
2023/03/18 00:48:03;;;;;;;;;;;11.10;99.90;;;;;;5086406;28;20461;-76
2023/03/18 00:50:29;;;;;;;;;;;11.10;99.90;;;;;;5092610;28;20012;-76
2023/03/18 00:52:55;;;;;;;;;;;11.10;99.90;;;;;;5092293;28;20392;-76
2023/03/18 00:55:21;;;;;;;;;;;11.00;99.90;;;;;;5091289;28;19963;-76
2023/03/18 00:57:46;;;;;;;;;;;11.10;99.90;;;;;;5090894;28;19963;-75
2023/03/18 01:00:15;;;;;;;;;;;11.00;99.90;;;;;;5092248;28;20441;-75
2023/03/18 01:02:42;;;;;;;;;;;11.00;99.90;;;;;;5090519;28;19924;-75
2023/03/18 01:05:07;;;;;;;;;;;11.00;99.90;;;;;;5092290;28;19935;-75
2023/03/18 01:07:33;;;;;;;;;;;11.00;99.90;;;;;;5092112;28;20015;-76
2023/03/18 01:09:58;;;;;;;;;;;11.00;99.90;;;;;;5092595;28;19932;-76
2023/03/18 01:12:24;;;;;;;;;;;11.00;99.90;;;;;;5090460;28;20301;-76
2023/03/18 01:14:50;;;;;;;;;;;11.00;99.90;;;;;;5092154;28;19924;-75
2023/03/18 01:17:15;;;;;;;;;;;10.90;99.90;;;;;;5078827;28;19928;-76
2023/03/18 01:19:41;;;;;;;;;;;10.90;99.90;;;;;;5091973;28;19931;-76
2023/03/18 01:22:06;;;;;;;;;;;10.90;99.90;;;;;;5090798;28;19924;-76
2023/03/18 01:24:32;;;;;;;;;;;10.90;99.90;;;;;;5091394;28;20328;-76
2023/03/18 01:26:58;;;;;;;;;;;10.80;99.90;;;;;;5091452;28;19924;-76
2023/03/18 01:29:24;;;;;;;;;;;10.80;99.90;;;;;;5090548;28;19924;-76
2023/03/18 01:31:50;;;;;;;;;;;10.70;99.90;;;;;;5090598;28;19924;-76
2023/03/18 01:34:16;;;;;;;;;;;10.70;99.90;;;;;;5091997;28;19931;-76
2023/03/18 01:36:41;;;;;;;;;;;10.60;99.90;;;;;;5092337;28;19924;-76
2023/03/18 01:39:07;;;;;;;;;;;10.60;99.90;;;;;;5092450;28;19928;-76
2023/03/18 01:41:33;;;;;;;;;;;10.50;99.90;;;;;;5092642;28;19977;-75
2023/03/18 01:44:00;;;;;;;;;;;10.50;99.90;;;;;;5080285;28;19936;-76
2023/03/18 01:46:34;;;;;;;;;;;10.40;99.90;;;;;;5091957;28;19971;-75
2023/03/18 01:49:02;;;;;;;;;;;10.40;99.90;;;;;;5092423;28;20539;-75
2023/03/18 01:51:28;;;;;;;;;;;10.30;99.90;;;;;;5080853;28;19986;-76
2023/03/18 01:53:56;;;;;;;;;;;10.30;99.90;;;;;;5091761;28;20405;-76
2023/03/18 01:56:22;;;;;;;;;;;10.20;99.90;;;;;;5092756;28;20366;-75
2023/03/18 01:58:49;;;;;;;;;;;10.20;99.90;;;;;;5091800;28;19969;-76
2023/03/18 02:01:21;;;;;;;;;;;10.10;99.90;;;;;;5091207;28;19924;-76
2023/03/18 02:03:47;;;;;;;;;;;10.10;99.90;;;;;;5090934;28;19943;-76
2023/03/18 02:06:13;;;;;;;;;;;10.00;99.90;;;;;;5087189;28;19924;-76
2023/03/18 02:08:39;;;;;;;;;;;9.90;99.90;;;;;;5091185;28;19934;-76
2023/03/18 02:11:05;;;;;;;;;;;9.90;99.90;;;;;;5092972;28;19931;-76
2023/03/18 02:13:31;;;;;;;;;;;9.90;99.90;;;;;;5091214;28;19969;-76
2023/03/18 02:16:07;;;;;;;;;;;9.80;99.90;;;;;;5090775;28;19924;-76
2023/03/18 02:18:35;;;;;;;;;;;9.80;99.90;;;;;;5086405;28;19923;-76
2023/03/18 02:21:10;;;;;;;;;;;9.80;99.90;;;;;;5090449;28;19924;-76
2023/03/18 02:23:54;;;;;;;;;;;9.80;99.90;;;;;;5095410;28;19931;-75
2023/03/18 02:26:30;;;;;;;;;;;9.80;99.90;;;;;;5090796;28;19928;-76
2023/03/18 02:28:58;;;;;;;;;;;9.80;99.90;;;;;;5084940;28;19969;-75
2023/03/18 02:31:24;;;;;;;;;;;9.70;99.90;;;;;;5090768;28;20007;-76
2023/03/18 02:33:50;;;;;;;;;;;9.70;99.90;;;;;;5089181;28;19928;-76
2023/03/18 02:36:18;;;;;;;;;;;9.70;99.90;;;;;;5088489;28;19970;-76
2023/03/18 02:38:44;;;;;;;;;;;9.70;99.90;;;;;;5095994;28;19928;-76
2023/03/18 02:41:39;;;;;;;;;;;9.70;99.90;;;;;;5096210;28;19947;-76
2023/03/18 02:44:05;;;;;;;;;;;9.70;99.90;;;;;;5080839;28;19955;-76
2023/03/18 02:46:30;;;;;;;;;;;9.70;99.90;;;;;;5089950;28;20348;-76
2023/03/18 02:48:58;;;;;;;;;;;9.70;99.90;;;;;;5091390;28;19931;-76
2023/03/18 02:51:25;;;;;;;;;;;9.70;99.90;;;;;;5100826;28;19930;-76
2023/03/18 02:53:53;;;;;;;;;;;9.70;99.90;;;;;;5106979;28;19928;-76
2023/03/18 02:56:19;;;;;;;;;;;9.60;99.90;;;;;;5089736;28;19973;-76
2023/03/18 02:58:45;;;;;;;;;;;9.60;99.90;;;;;;5089940;28;20339;-76
2023/03/18 03:01:11;;;;;;;;;;;9.60;99.90;;;;;;5089980;28;19925;-76
2023/03/18 03:03:37;;;;;;;;;;;9.60;99.90;;;;;;5090223;28;19931;-76
2023/03/18 03:06:03;;;;;;;;;;;9.60;99.90;;;;;;5089590;28;20477;-76
2023/03/18 03:08:29;;;;;;;;;;;9.60;99.90;;;;;;5090353;28;19924;-76
2023/03/18 03:10:55;;;;;;;;;;;9.60;99.90;;;;;;5090264;28;20298;-77
2023/03/18 03:13:21;;;;;;;;;;;9.60;99.90;;;;;;5090097;28;19928;-77
2023/03/18 03:15:47;;;;;;;;;;;9.60;99.90;;;;;;5071577;28;19931;-77
2023/03/18 03:18:13;;;;;;;;;;;9.60;99.90;;;;;;5089867;28;20000;-77
2023/03/18 03:20:39;;;;;;;;;;;9.60;99.90;;;;;;5088673;28;19924;-76
2023/03/18 03:23:09;;;;;;;;;;;9.50;99.90;;;;;;5077060;28;19931;-76
2023/03/18 03:25:35;;;;;;;;;;;9.50;99.90;;;;;;5088719;28;19935;-75
2023/03/18 03:28:01;;;;;;;;;;;9.50;99.90;;;;;;5089950;28;19924;-75
2023/03/18 03:30:27;;;;;;;;;;;9.50;99.90;;;;;;5088466;28;20389;-76
2023/03/18 03:32:53;;;;;;;;;;;9.50;99.90;;;;;;5089246;28;19924;-76
2023/03/18 03:35:19;;;;;;;;;;;9.50;99.90;;;;;;5088091;28;19928;-77
2023/03/18 03:37:44;;;;;;;;;;;9.40;99.90;;;;;;5082744;28;19928;-76
2023/03/18 03:40:11;;;;;;;;;;;9.50;99.90;;;;;;5090011;28;20339;-76
2023/03/18 03:42:36;;;;;;;;;;;9.50;99.90;;;;;;5088951;28;19974;-76
2023/03/18 03:45:04;;;;;;;;;;;9.50;99.90;;;;;;5088175;28;19971;-76
2023/03/18 03:47:30;;;;;;;;;;;9.40;99.90;;;;;;5086052;28;20011;-76
2023/03/18 03:49:55;;;;;;;;;;;9.40;99.90;;;;;;5088998;28;19924;-75
2023/03/18 03:52:21;;;;;;;;;;;9.40;99.90;;;;;;5093299;28;19924;-76
2023/03/18 03:54:47;;;;;;;;;;;9.40;99.90;;;;;;5094000;28;20362;-76
2023/03/18 03:57:13;;;;;;;;;;;9.30;99.90;;;;;;5095621;28;19978;-76
2023/03/18 03:59:39;;;;;;;;;;;9.30;99.90;;;;;;5087897;28;19937;-76
2023/03/18 04:02:04;;;;;;;;;;;9.30;99.90;;;;;;5077481;28;19972;-76
2023/03/18 04:04:30;;;;;;;;;;;9.30;99.90;;;;;;5093080;28;19924;-76
2023/03/18 04:06:57;;;;;;;;;;;9.30;99.90;;;;;;5094320;28;20469;-76
2023/03/18 04:09:22;;;;;;;;;;;9.30;99.90;;;;;;5074751;28;20397;-76
2023/03/18 04:11:48;;;;;;;;;;;9.30;99.90;;;;;;5093349;28;19931;-76
2023/03/18 04:14:13;;;;;;;;;;;9.20;99.90;;;;;;5093250;28;20400;-76
2023/03/18 04:16:39;;;;;;;;;;;9.20;99.90;;;;;;5094206;28;20428;-76
2023/03/18 04:19:06;;;;;;;;;;;9.20;99.90;;;;;;5092536;28;20488;-76
2023/03/18 04:21:31;;;;;;;;;;;9.20;99.90;;;;;;5094836;28;19931;-76
2023/03/18 04:23:57;;;;;;;;;;;9.10;99.90;;;;;;5076302;28;19924;-76
2023/03/18 04:26:22;;;;;;;;;;;9.10;99.90;;;;;;5098281;28;19931;-76
2023/03/18 04:28:48;;;;;;;;;;;9.10;99.90;;;;;;5085946;28;19935;-76
2023/03/18 04:31:14;;;;;;;;;;;9.00;99.90;;;;;;5074847;28;19924;-76
2023/03/18 04:33:39;;;;;;;;;;;9.00;99.90;;;;;;5074862;28;20282;-76
2023/03/18 04:36:05;;;;;;;;;;;9.00;99.90;;;;;;5118875;27;19928;-77
2023/03/18 04:38:31;;;;;;;;;;;9.00;99.90;;;;;;5092075;28;20430;-76
2023/03/18 04:40:57;;;;;;;;;;;9.00;99.90;;;;;;5091828;28;19924;-77
2023/03/18 04:43:23;;;;;;;;;;;8.90;99.90;;;;;;5091837;28;19947;-76
2023/03/18 04:45:49;;;;;;;;;;;8.90;99.90;;;;;;5092727;28;19928;-76
2023/03/18 04:48:15;;;;;;;;;;;8.90;99.90;;;;;;5089840;28;19996;-76
2023/03/18 04:50:40;;;;;;;;;;;8.90;99.90;;;;;;5102386;28;19924;-76
2023/03/18 04:53:06;;;;;;;;;;;9.00;99.90;;;;;;5098761;28;20310;-76
2023/03/18 04:55:32;;;;;;;;;;;8.90;99.90;;;;;;5102139;28;19924;-75
2023/03/18 04:57:58;;;;;;;;;;;8.90;99.90;;;;;;5098702;28;19928;-75
2023/03/18 05:00:23;;;;;;;;;;;8.90;99.90;;;;;;5090862;28;19931;-77
2023/03/18 05:02:49;;;;;;;;;;;8.90;99.90;;;;;;5095232;28;19934;-77
2023/03/18 05:05:15;;;;;;;;;;;8.90;99.90;;;;;;5102470;28;19977;-77
2023/03/18 05:07:41;;;;;;;;;;;8.90;99.90;;;;;;5108109;28;19931;-77
2023/03/18 05:10:07;;;;;;;;;;;8.80;99.90;;;;;;5076153;28;19924;-77
2023/03/18 05:12:32;;;;;;;;;;;8.80;99.90;;;;;;5106244;28;19930;-77
2023/03/18 05:14:58;;;;;;;;;;;8.80;99.90;;;;;;5089696;28;19934;-77
2023/03/18 05:17:24;;;;;;;;;;;8.70;99.90;;;;;;5108555;28;19977;-77
2023/03/18 05:19:49;;;;;;;;;;;8.70;99.90;;;;;;5103195;28;19970;-77
2023/03/18 05:22:16;;;;;;;;;;;8.80;99.90;;;;;;5099585;28;19924;-77
2023/03/18 05:24:42;;;;;;;;;;;8.70;99.90;;;;;;5090278;28;20278;-77
2023/03/18 05:27:09;;;;;;;;;;;8.70;99.90;;;;;;5097729;28;19928;-77
2023/03/18 05:29:36;;;;;;;;;;;8.70;99.90;;;;;;5098493;28;19924;-77
2023/03/18 05:32:03;;;;;;;;;;;8.70;99.90;;;;;;5102948;28;20105;-77
2023/03/18 05:34:28;;;;;;;;;;;8.60;99.90;;;;;;5090998;28;20461;-77
2023/03/18 05:36:54;;;;;;;;;;;8.70;99.90;;;;;;5097529;28;20015;-77
2023/03/18 05:39:20;;;;;;;;;;;8.60;99.90;;;;;;5098335;28;19924;-77
2023/03/18 05:41:45;;;;;;;;;;;8.60;99.90;;;;;;5098123;28;19924;-77
2023/03/18 05:44:11;;;;;;;;;;;8.60;99.90;;;;;;5100059;28;20369;-77
2023/03/18 05:46:36;;;;;;;;;;;8.70;99.90;;;;;;5102903;28;19923;-77
2023/03/18 05:49:02;;;;;;;;;;;8.70;99.90;;;;;;5099856;28;19924;-77
2023/03/18 05:51:27;;;;;;;;;;;8.70;99.90;;;;;;5103612;28;19923;-77
2023/03/18 05:53:53;;;;;;;;;;;8.70;99.90;;;;;;5093594;28;20311;-77
2023/03/18 05:56:19;;;;;;;;;;;8.80;99.90;;;;;;5084224;28;20286;-77
2023/03/18 05:58:44;;;;;;;;;;;8.80;99.90;;;;;;5076189;28;20354;-77
2023/03/18 06:01:10;;;;;;;;;;;8.80;99.90;;;;;;5104384;28;19946;-77
2023/03/18 06:03:35;;;;;;;;;;;8.90;99.90;;;;;;5077346;28;19931;-77
2023/03/18 06:06:01;;;;;;;;;;;8.90;99.90;;;;;;5105004;28;19931;-77
2023/03/18 06:08:27;;;;;;;;;;;9.00;99.90;;;;;;5093780;28;19925;-77
2023/03/18 06:10:53;;;;;;;;;;;9.00;99.90;;;;;;5104799;28;19963;-77
2023/03/18 06:13:18;;;;;;;;;;;9.00;99.90;;;;;;5098725;28;20313;-77
2023/03/18 06:15:45;;;;;;;;;;;9.10;99.90;;;;;;5079285;28;20308;-77
2023/03/18 06:18:11;;;;;;;;;;;9.10;99.90;;;;;;5098170;28;19928;-75
2023/03/18 06:20:36;;;;;;;;;;;9.10;99.90;;;;;;5104254;27;19939;-75
2023/03/18 06:23:02;;;;;;;;;;;9.10;99.90;;;;;;5096281;28;19935;-75
2023/03/18 06:25:28;;;;;;;;;;;9.10;99.90;;;;;;5090845;28;19925;-76
2023/03/18 06:27:53;;;;;;;;;;;9.20;99.90;;;;;;5090127;28;19924;-76
2023/03/18 06:30:19;;;;;;;;;;;9.20;99.90;;;;;;5083885;28;19924;-75
2023/03/18 06:32:45;;;;;;;;;;;9.20;99.90;;;;;;5096886;28;19928;-76
2023/03/18 06:35:11;;;;;;;;;;;9.20;99.90;;;;;;5090398;28;20352;-76
2023/03/18 06:37:37;;;;;;;;;;;9.20;99.90;;;;;;5087984;28;19924;-76
2023/03/18 06:40:03;;;;;;;;;;;9.30;99.90;;;;;;5089016;28;19924;-76
2023/03/18 06:42:28;;;;;;;;;;;9.30;99.90;;;;;;5091247;28;19928;-76
2023/03/18 06:44:54;;;;;;;;;;;9.30;99.90;;;;;;5089480;28;20417;-76
2023/03/18 06:47:21;;;;;;;;;;;9.30;99.90;;;;;;5067972;28;19938;-76
2023/03/18 06:49:47;;;;;;;;;;;9.30;99.90;;;;;;5090050;28;19924;-76
2023/03/18 06:52:13;;;;;;;;;;;9.40;99.90;;;;;;5090969;28;19970;-76
2023/03/18 06:54:39;;;;;;;;;;;9.40;99.90;;;;;;5088701;28;20344;-76
2023/03/18 06:57:05;;;;;;;;;;;9.40;99.90;;;;;;5088492;28;20439;-76
2023/03/18 06:59:30;;;;;;;;;;;9.50;99.90;;;;;;5089597;28;20398;-75
2023/03/18 07:01:56;;;;;;;;;;;9.40;99.90;;;;;;5091923;28;19935;-75
2023/03/18 07:04:23;;;;;;;;;;;9.50;99.90;;;;;;5089744;28;19924;-76
2023/03/18 07:06:49;;;;;;;;;;;9.50;99.90;;;;;;5090532;28;19932;-76
2023/03/18 07:09:15;;;;;;;;;;;9.50;99.90;;;;;;5090564;28;19958;-76
2023/03/18 07:11:41;;;;;;;;;;;9.50;99.90;;;;;;5091291;28;19931;-76
2023/03/18 07:14:06;;;;;;;;;;;9.60;99.90;;;;;;5090915;28;19924;-77
2023/03/18 07:16:32;;;;;;;;;;;9.60;99.90;;;;;;5092240;28;20421;-76
2023/03/18 07:18:58;;;;;;;;;;;9.70;99.90;;;;;;5090796;28;19924;-76
2023/03/18 07:21:24;;;;;;;;;;;9.70;99.90;;;;;;5091106;28;19932;-76
2023/03/18 07:23:50;;;;;;;;;;;9.70;99.90;;;;;;5095913;28;19930;-76
2023/03/18 07:26:16;;;;;;;;;;;9.70;99.90;;;;;;5097243;28;19925;-76
2023/03/18 07:28:42;;;;;;;;;;;9.80;99.90;;;;;;5101307;28;19962;-76
2023/03/18 07:31:07;;;;;;;;;;;9.80;99.90;;;;;;5090078;28;20010;-76
2023/03/18 07:33:33;;;;;;;;;;;9.80;99.90;;;;;;5100295;28;20053;-77
2023/03/18 07:35:59;;;;;;;;;;;9.90;99.90;;;;;;5090314;28;19948;-76
2023/03/18 07:38:24;;;;;;;;;;;9.90;99.90;;;;;;5099079;28;19923;-76
2023/03/18 07:40:50;;;;;;;;;;;10.00;99.90;;;;;;5081539;28;19935;-76
2023/03/18 07:43:16;;;;;;;;;;;10.00;99.90;;;;;;5100531;28;19924;-76
2023/03/18 07:45:42;;;;;;;;;;;10.10;99.90;;;;;;5088009;28;20413;-76
2023/03/18 07:48:07;;;;;;;;;;;10.20;99.90;;;;;;5092478;28;19932;-78
2023/03/18 07:50:33;;;;;;;;;;;10.20;99.90;;;;;;5084407;28;19924;-77
2023/03/18 07:52:59;;;;;;;;;;;10.30;99.90;;;;;;5087028;28;19936;-77
2023/03/18 07:55:24;;;;;;;;;;;10.40;99.90;;;;;;5088034;28;19931;-77
2023/03/18 07:57:50;;;;;;;;;;;10.60;99.90;;;;;;5070183;28;19935;-77
2023/03/18 08:00:16;;;;;;;;;;;10.70;99.90;;;;;;5084183;28;20394;-78
2023/03/18 08:02:41;;;;;;;;;;;10.90;99.90;;;;;;5085050;28;19955;-77
2023/03/18 08:05:07;;;;;;;;;;;11.00;99.90;;;;;;5086344;28;19963;-77
2023/03/18 08:07:33;;;;;;;;;;;11.00;99.90;;;;;;5088348;28;19924;-77
2023/03/18 08:09:59;;;;;;;;;;;11.10;99.90;;;;;;5082279;28;19932;-77
2023/03/18 08:12:25;;;;;;;;;;;11.10;99.90;;;;;;5085710;28;20393;-77
2023/03/18 08:14:50;;;;;;;;;;;11.10;99.90;;;;;;5083296;28;19985;-77
2023/03/18 08:17:16;;;;;;;;;;;11.10;99.90;;;;;;5086804;28;19956;-77
2023/03/18 08:19:42;;;;;;;;;;;11.10;99.90;;;;;;5087467;28;20467;-77
2023/03/18 08:22:08;;;;;;;;;;;11.10;99.90;;;;;;5089099;28;20015;-77
2023/03/18 08:24:36;;;;;;;;;;;11.20;99.90;;;;;;5083751;28;19932;-75
2023/03/18 08:27:01;;;;;;;;;;;11.20;99.90;;;;;;5091339;28;19924;-76
2023/03/18 08:29:27;;;;;;;;;;;11.30;99.90;;;;;;5102053;28;20309;-78
2023/03/18 08:31:53;;;;;;;;;;;11.40;99.90;;;;;;5085710;28;20402;-76
2023/03/18 08:34:18;;;;;;;;;;;11.40;99.90;;;;;;5090243;28;20358;-77
2023/03/18 08:36:45;;;;;;;;;;;11.50;99.90;;;;;;5089856;28;20359;-76
2023/03/18 08:39:10;;;;;;;;;;;11.60;99.90;;;;;;5071755;28;19931;-75
2023/03/18 08:41:36;;;;;;;;;;;11.60;99.90;;;;;;5088201;28;19924;-76
2023/03/18 08:44:02;;;;;;;;;;;11.70;99.90;;;;;;5090900;28;20333;-76
2023/03/18 08:46:28;;;;;;;;;;;11.80;99.90;;;;;;5091448;28;19928;-76
2023/03/18 08:48:53;;;;;;;;;;;11.90;99.90;;;;;;5089996;28;20648;-76
2023/03/18 08:51:21;;;;;;;;;;;12.00;99.90;;;;;;5098496;28;20446;-76
2023/03/18 08:53:46;;;;;;;;;;;12.10;99.90;;;;;;5091466;28;19930;-76
2023/03/18 08:56:13;;;;;;;;;;;12.10;99.90;;;;;;5089714;28;19924;-76
2023/03/18 08:58:39;;;;;;;;;;;12.20;99.90;;;;;;5089885;28;20389;-76
2023/03/18 09:01:04;;;;;;;;;;;12.30;99.90;;;;;;5095451;28;20002;-76
2023/03/18 09:03:30;;;;;;;;;;;12.40;99.90;;;;;;5091093;28;19924;-76
2023/03/18 09:05:56;;;;;;;;;;;12.40;99.90;;;;;;5096054;28;20321;-77
2023/03/18 09:08:22;;;;;;;;;;;12.50;99.90;;;;;;5098840;28;19924;-75
2023/03/18 09:10:52;;;;;;;;;;;12.60;99.90;;;;;;5099886;28;19931;-76
2023/03/18 09:13:18;;;;;;;;;;;12.60;99.90;;;;;;5098655;28;19924;-76
2023/03/18 09:15:43;;;;;;;;;;;12.60;99.90;;;;;;5098157;28;19923;-76
2023/03/18 09:18:09;;;;;;;;;;;12.60;99.90;;;;;;5088160;28;20003;-75
2023/03/18 09:20:34;;;;;;;;;;;12.50;99.90;;;;;;5091454;28;19975;-75
2023/03/18 09:23:01;;;;;;;;;;;12.60;99.90;;;;;;5089105;28;19924;-75
2023/03/18 09:25:26;;;;;;;;;;;12.50;99.90;;;;;;5091133;28;20651;-76
2023/03/18 09:27:52;;;;;;;;;;;12.50;99.90;;;;;;5091811;28;19924;-75
2023/03/18 09:30:18;;;;;;;;;;;12.50;99.90;;;;;;5090522;28;19924;-75
2023/03/18 09:32:44;;;;;;;;;;;12.50;99.90;;;;;;5091624;28;19971;-75
2023/03/18 09:35:10;;;;;;;;;;;12.60;99.90;;;;;;5094341;28;19979;-75
2023/03/18 09:37:36;;;;;;;;;;;12.50;99.90;;;;;;5089706;28;19962;-76
2023/03/18 09:40:02;;;;;;;;;;;12.50;99.90;;;;;;5092388;28;20373;-76
2023/03/18 09:42:46;;;;;;;;;;;12.50;99.90;;;;;;5086896;28;19931;-76
2023/03/18 09:45:32;;;;;;;;;;;12.50;99.90;;;;;;5084812;28;20007;-76
2023/03/18 09:47:58;;;;;;;;;;;12.50;99.90;;;;;;5083974;28;19930;-76
2023/03/18 09:50:32;;;;;;;;;;;12.50;99.90;;;;;;5097597;28;19924;-77
2023/03/18 09:53:15;;;;;;;;;;;12.50;99.90;;;;;;5094789;28;19931;-76
2023/03/18 09:55:45;;;;;;;;;;;12.60;99.90;;;;;;5085119;28;19986;-77
2023/03/18 09:58:21;;;;;;;;;;;12.60;99.90;;;;;;5087272;28;19933;-77
2023/03/18 10:00:47;;;;;;;;;;;12.70;99.90;;;;;;5092882;28;20020;-77
2023/03/18 10:03:14;;;;;;;;;;;12.70;99.90;;;;;;5103693;28;20414;-75
2023/03/18 10:05:43;;;;;;;;;;;12.70;99.90;;;;;;5093503;28;19950;-75
2023/03/18 10:08:18;;;;;;;;;;;12.80;99.90;;;;;;5095077;28;20291;-75
2023/03/18 10:10:47;;;;;;;;;;;12.70;99.90;;;;;;5105656;28;19930;-75
2023/03/18 10:13:31;;;;;;;;;;;12.80;99.90;;;;;;5087387;28;20381;-75
2023/03/18 10:16:01;;;;;;;;;;;12.80;99.90;;;;;;5098335;27;19924;-75
2023/03/18 10:18:29;;;;;;;;;;;12.80;99.90;;;;;;5088807;28;20702;-75
2023/03/18 10:21:05;;;;;;;;;;;12.90;99.90;;;;;;5097774;28;19971;-75
2023/03/18 10:23:40;;;;;;;;;;;12.90;99.90;;;;;;5093885;28;19932;-76
2023/03/18 10:26:19;;;;;;;;;;;13.10;99.90;;;;;;5089079;28;20074;-76
2023/03/18 10:29:12;;;;;;;;;;;13.40;99.90;;;;;;5079403;28;19928;-76
2023/03/18 10:31:57;;;;;;;;;;;13.80;99.90;;;;;;5074473;28;19969;-76
2023/03/18 10:34:29;;;;;;;;;;;14.10;99.90;;;;;;5089216;28;20457;-76
2023/03/18 10:37:01;;;;;;;;;;;14.90;99.90;;;;;;5087725;28;19924;-76
2023/03/18 10:39:28;;;;;;;;;;;15.50;99.90;;;;;;5090473;28;19947;-76
2023/03/18 10:41:55;;;;;;;;;;;15.90;99.90;;;;;;5094741;28;19932;-76
2023/03/18 10:44:33;;;;;;;24.42;19.27;;;16.70;99.90;;;;;;5091265;28;19924;-76
2023/03/18 10:47:01;;;;;;;;;;;17.50;99.90;;;;;;5090078;28;20128;-76
2023/03/18 10:49:52;;;;;;;24.90;19.02;;;18.10;99.90;;;;;;5089951;28;20278;-76
2023/03/18 10:52:27;;;;;;;22.02;17.67;;;18.70;99.90;;;;;;5086882;28;20504;-76
2023/03/18 10:54:53;;;;;;;23.52;17.52;;;19.10;99.90;;;;;;5085145;28;20109;-76
2023/03/18 10:57:20;;;;;;;23.33;19.30;;;19.30;99.90;;;;;;5086431;28;20859;-76
2023/03/18 10:59:47;;;;;;;21.73;18.48;;;19.60;99.90;;;;;;5086299;28;20422;-74
2023/03/18 11:02:18;;;;;;;20.85;18.45;;;19.80;99.90;;;;;;5088360;28;20408;-74
2023/03/18 11:04:48;;;;;;;;;;;20.10;99.90;;;;;;5090588;28;20051;-74
2023/03/18 11:07:17;;;;;;;;;;;20.50;99.90;;;;;;5090982;28;20029;-74
2023/03/18 11:09:43;;;;;;;;;;;20.40;99.90;;;;;;5090304;28;19943;-74
2023/03/18 11:12:17;;;;;;;;;;;20.50;99.90;;;;;;5090633;28;20596;-74
2023/03/18 11:14:47;;;;;;;;;;;20.30;99.90;;;;;;5088916;28;19920;-74
2023/03/18 11:17:19;;;;;;;;;;;19.90;99.90;;;;;;5080358;28;19926;-75
2023/03/18 11:19:58;;;;;;;19.52;14.70;;;19.50;99.90;;;;;;5090431;28;19924;-72
2023/03/18 11:22:25;;;;;;;19.65;14.75;;;19.30;99.90;;;;;;5081874;28;20048;-72
2023/03/18 11:25:10;;;;;;;;;;;19.10;99.90;;;;;;5091603;28;20561;-72
2023/03/18 11:27:40;;;;;;;;;;;18.80;99.90;;;;;;5097181;28;19927;-72
2023/03/18 11:30:29;;;;;;;17.92;13.88;;;18.70;99.90;;;;;;5093854;28;19924;-73
2023/03/18 11:33:15;;;;;;;18.33;13.10;;;19.50;99.90;;;;;;5090299;28;20051;-73
2023/03/18 11:35:53;;;;;;;;;;;19.80;99.90;;;;;;5092711;28;20048;-72
2023/03/18 11:38:23;;;;;;;;;;;19.20;99.90;;;;;;5099331;28;19926;-73
2023/03/18 11:40:48;;;;;;;;;;;19.10;99.90;;;;;;5094546;28;19926;-73
2023/03/18 11:43:19;;;;;;;;;;;19.70;99.90;;;;;;5096891;28;19923;-73
2023/03/18 11:45:59;;;;;;;;;;;20.40;99.90;;;;;;5087829;28;19974;-79
2023/03/18 11:48:30;;;;;;;;;;;21.00;99.90;;;;;;5102624;28;19927;-75
2023/03/18 11:51:09;;;;;;;;;;;20.70;99.90;;;;;;5099859;28;19919;-75
2023/03/18 11:53:41;;;;;;;;;;;20.30;99.90;;;;;;5091555;28;19920;-74
2023/03/18 11:56:15;;;;;;;;;;;20.00;99.90;;;;;;5085342;28;19924;-74
2023/03/18 11:58:47;;;;;;;;;;;19.40;99.90;;;;;;5083923;28;19954;-74
2023/03/18 12:01:22;;;;;;;;;;;18.80;99.90;;;;;;5092106;28;20597;-74
2023/03/18 12:03:54;;;;;;;;;;;18.30;99.90;;;;;;5087348;28;19932;-74
2023/03/18 12:06:21;;;;;;;;;;;18.00;99.90;;;;;;5099326;28;20682;-74
2023/03/18 12:08:55;;;;;;;;;;;17.70;99.90;;;;;;5088720;28;20042;-72
2023/03/18 12:11:27;;;;;;;;;;;17.70;99.90;;;;;;5066712;28;20282;-73
2023/03/18 12:14:02;;;;;;;;;;;17.60;99.90;;;;;;5091402;28;20465;-73
2023/03/18 12:16:52;;;;;;;;;;;17.50;99.90;;;;;;5089685;28;19923;-72
2023/03/18 12:19:36;;;;;;;;;;;17.30;99.90;;;;;;5092230;28;20457;-72
2023/03/18 12:22:25;;;;;;;;;;;17.10;99.90;;;;;;5084346;28;19925;-72
2023/03/18 12:25:12;;;;;;;;;;;16.80;99.90;;;;;;5094788;28;19931;-72
2023/03/18 12:27:54;;;;;;;;;;;16.60;99.90;;;;;;5097230;28;19920;-72
2023/03/18 12:30:35;;;;;;;;;;;16.40;99.90;;;;;;5104497;27;19982;-72
2023/03/18 12:33:04;;;;;;;;;;;16.30;99.90;;;;;;5091571;28;19920;-72
2023/03/18 12:35:48;;;;;;;;;;;16.20;99.90;;;;;;5091748;28;19920;-72
2023/03/18 12:38:37;;;;;;;;;;;16.50;99.90;;;;;;5092911;28;19975;-72
2023/03/18 12:41:18;;;;;;;;;;;17.20;99.90;;;;;;5088629;28;19924;-72
2023/03/18 12:43:46;;;;;;;;;;;17.30;99.90;;;;;;5068184;28;19920;-72
2023/03/18 12:46:19;;;;;;;;;;;17.20;99.90;;;;;;5088044;28;19919;-72
2023/03/18 12:48:50;;;;;;;;;;;17.10;99.90;;;;;;5088857;28;20018;-73
2023/03/18 12:51:20;;;;;;;;;;;17.00;99.90;;;;;;5090491;28;19924;-72
2023/03/18 12:53:51;;;;;;;;;;;16.80;99.90;;;;;;5097995;28;19927;-72
2023/03/18 12:56:21;;;;;;;;;;;16.80;99.90;;;;;;5099168;28;19919;-72
2023/03/18 12:58:49;;;;;;;;;;;16.80;99.90;;;;;;5093554;28;20373;-72
2023/03/18 13:01:17;;;;;;;;;;;17.20;99.90;;;;;;5086670;28;19928;-72
2023/03/18 13:03:51;;;;;;;16.30;11.30;;;18.40;99.90;;;;;;5095301;28;19973;-73
2023/03/18 13:06:28;;;;;;;16.67;11.02;;;19.50;99.90;;;;;;5084906;28;20050;-72
2023/03/18 13:09:04;;;;;;;11.15;8.40;;;20.50;99.90;;;;;;5101229;28;20405;-73
2023/03/18 13:12:08;;;;;;;10.70;8.20;;;21.20;99.90;;;;;;5103159;28;20059;-73
2023/03/18 13:14:47;;;;;;;11.63;8.65;;;21.60;99.90;;;;;;5084239;28;20048;-73
2023/03/18 13:17:19;;;;;;;13.65;8.68;;;22.00;99.90;;;;;;5098978;28;20097;-74
2023/03/18 13:19:45;;;;;;;12.15;9.38;;;22.10;99.90;;;;;;5098207;28;20064;-73
2023/03/18 13:22:31;;;;;;;;;;;22.30;99.90;;;;;;5091813;28;20508;-73
2023/03/18 13:25:29;;;;;;;12.50;7.93;;;22.40;99.90;;;;;;5053441;28;19920;-74
2023/03/18 13:28:22;;;;;;;11.63;8.40;;;22.40;99.90;;;;;;5078508;28;20055;-74
2023/03/18 13:31:00;;;;;;;12.10;7.97;;;22.50;99.90;;;;;;5082493;28;20041;-74
2023/03/18 13:33:44;;;;;;;;;;;22.80;99.90;;;;;;5090950;28;20309;-74
2023/03/18 13:36:16;;;;;;;;;;;23.30;99.90;;;;;;5088803;28;19927;-74
2023/03/18 13:38:50;;;;;;;;;;;23.40;99.90;;;;;;5090427;28;19920;-74
2023/03/18 13:41:17;;;;;;;;;;;22.80;98.40;;;;;;5090834;28;20784;-74
2023/03/18 13:43:48;;;;;;;;;;;22.00;99.90;;;;;;5073653;28;19920;-74
2023/03/18 13:46:22;;;;;;;;;;;21.30;99.90;;;;;;5086506;28;19947;-74
2023/03/18 13:48:52;;;;;;;;;;;20.80;99.90;;;;;;5073562;28;19920;-73
2023/03/18 13:51:24;;;;;;;;;;;20.60;99.90;;;;;;5070204;28;19927;-73
2023/03/18 13:53:52;;;;;;;;;;;20.70;99.90;;;;;;5073206;28;20019;-74
2023/03/18 13:56:31;;;;;;;;;;;20.60;99.90;;;;;;5089115;28;20413;-74
2023/03/18 13:59:01;;;;;;;;;;;20.50;99.90;;;;;;5080111;28;20422;-74
2023/03/18 14:01:35;;;;;;;;;;;20.30;99.90;;;;;;5088156;28;20324;-74
2023/03/18 14:04:18;;;;;;;;;;;20.10;99.90;;;;;;5089740;28;19920;-74
2023/03/18 14:06:54;;;;;;;;;;;19.80;99.90;;;;;;5089880;28;19927;-73
2023/03/18 14:09:29;;;;;;;;;;;19.50;99.90;;;;;;5089616;28;19934;-74
2023/03/18 14:12:00;;;;;;;;;;;19.30;99.90;;;;;;5088070;28;19920;-74
2023/03/18 14:14:38;;;;;;;;;;;19.10;99.90;;;;;;5091141;28;19973;-74
2023/03/18 14:17:04;;;;;;;;;;;19.00;99.90;;;;;;5088627;28;19921;-74
2023/03/18 14:19:33;;;;;;;;;;;18.80;99.90;;;;;;5089531;28;19931;-75
2023/03/18 14:22:06;;;;;;;;;;;18.60;99.90;;;;;;5089233;28;20267;-74
2023/03/18 14:24:31;;;;;;;;;;;18.50;99.90;;;;;;5090045;28;19924;-74